Time;durP1;ratioP1;P1;durP2;ratioP2;P2;SDS_P1;SDS_P2;PMS_P1;PMS_P2;Temp;Humidity;BMP_temperature;BMP_pressure;BME280_temperature;BME280_humidity;BME280_pressure;Samples;Min_cycle;Max_cycle;Signal;HPM_P1;HPM_P2
2021/12/02 00:02:23;;;;;;;44.45;26.77;;;;;;;5.77;100.00;99268.06;5002800;28;20054;-89
2021/12/02 00:04:50;;;;;;;44.03;25.27;;;;;;;5.77;100.00;99267.25;4989285;28;20034;-89
2021/12/02 00:07:16;;;;;;;42.00;25.60;;;;;;;5.44;100.00;99256.66;5006525;28;20110;-87
2021/12/02 00:09:42;;;;;;;45.95;26.42;;;;;;;5.59;100.00;99265.56;5003197;28;20042;-87
2021/12/02 00:12:08;;;;;;;46.38;26.83;;;;;;;5.71;100.00;99253.75;4983189;28;20117;-88
2021/12/02 00:14:43;;;;;;;48.30;26.33;;;;;;;5.72;100.00;99250.16;4985646;28;20042;-90
2021/12/02 00:17:14;;;;;;;47.67;26.83;;;;;;;5.53;100.00;99239.94;5001686;28;20050;-88
2021/12/02 00:22:27;;;;;;;45.58;25.90;;;;;;;5.82;100.00;99238.66;4983152;28;20042;-89
2021/12/02 00:24:59;;;;;;;44.85;24.33;;;;;;;6.00;100.00;99242.81;4980179;28;20122;-91
2021/12/02 00:27:28;;;;;;;47.85;26.05;;;;;;;5.89;100.00;99244.94;4968889;28;20053;-89
2021/12/02 00:30:02;;;;;;;40.72;25.17;;;;;;;5.79;100.00;99242.44;4969571;28;20045;-90
2021/12/02 00:32:30;;;;;;;39.83;23.30;;;;;;;5.97;100.00;99244.94;5005547;28;20161;-89
2021/12/02 00:34:57;;;;;;;45.47;25.65;;;;;;;5.74;100.00;99253.44;4988836;28;20043;-91
2021/12/02 00:37:23;;;;;;;42.17;25.15;;;;;;;5.79;100.00;99249.50;4987023;28;20038;-89
2021/12/02 00:39:52;;;;;;;51.10;27.20;;;;;;;5.78;100.00;99253.94;5001971;28;20040;-90
2021/12/02 00:42:20;;;;;;;39.20;25.50;;;;;;;5.84;100.00;99247.19;4983881;28;20100;-90
2021/12/02 00:44:47;;;;;;;37.45;24.20;;;;;;;5.92;100.00;99245.44;4980384;28;20034;-88
2021/12/02 00:47:15;;;;;;;41.78;23.90;;;;;;;5.91;100.00;99240.34;4996846;28;20114;-90
2021/12/02 00:49:43;;;;;;;48.50;25.58;;;;;;;5.90;100.00;99236.88;4982555;28;20034;-89
2021/12/02 00:52:08;;;;;;;37.88;24.15;;;;;;;5.91;100.00;99242.97;5004537;28;20089;-87
2021/12/02 00:54:40;;;;;;;39.42;25.45;;;;;;;5.78;100.00;99242.59;4981728;28;20042;-89
2021/12/02 00:57:10;;;;;;;42.28;24.75;;;;;;;5.64;100.00;99237.00;5012805;28;20037;-87
2021/12/02 00:59:36;;;;;;;43.50;25.77;;;;;;;5.56;100.00;99234.38;5002453;28;20405;-90
2021/12/02 01:02:05;;;;;;;43.50;24.77;;;;;;;5.52;100.00;99234.84;5001630;28;20014;-91
2021/12/02 01:04:31;;;;;;;48.42;26.90;;;;;;;5.46;100.00;99243.38;4967688;28;20470;-88
2021/12/02 01:06:56;;;;;;;43.22;26.45;;;;;;;5.54;100.00;99246.00;4981656;28;20042;-90
2021/12/02 01:09:22;;;;;;;45.65;26.60;;;;;;;5.47;100.00;99252.91;4981893;28;20046;-90
2021/12/02 01:11:49;;;;;;;45.05;27.50;;;;;;;5.39;100.00;99252.88;4999103;28;20112;-88
2021/12/02 01:14:15;;;;;;;47.83;27.15;;;;;;;5.30;100.00;99241.53;4965991;28;20038;-91
2021/12/02 01:16:41;;;;;;;44.67;27.63;;;;;;;5.28;100.00;99227.72;4984410;28;20030;-91
2021/12/02 01:19:08;;;;;;;53.25;28.15;;;;;;;5.25;100.00;99229.84;4971192;28;20034;-90
2021/12/02 01:21:38;;;;;;;48.75;27.80;;;;;;;5.30;100.00;99238.06;4968216;28;20038;-91
2021/12/02 01:24:06;;;;;;;47.58;28.15;;;;;;;5.27;100.00;99247.06;5000462;28;20070;-89
2021/12/02 01:26:33;;;;;;;51.85;27.95;;;;;;;5.28;100.00;99251.34;4998899;28;20058;-88
2021/12/02 01:29:01;;;;;;;44.80;27.65;;;;;;;5.38;100.00;99246.78;5001610;28;20035;-90
2021/12/02 01:31:36;;;;;;;45.13;27.08;;;;;;;5.33;100.00;99235.97;4983647;28;20066;-89
2021/12/02 01:34:07;;;;;;;48.67;27.92;;;;;;;5.36;100.00;99238.25;4966848;28;20034;-90
2021/12/02 01:36:35;;;;;;;46.80;28.40;;;;;;;5.24;100.00;99223.75;4982649;28;20030;-89
2021/12/02 01:39:04;;;;;;;51.05;28.90;;;;;;;5.27;100.00;99220.81;4951711;28;20061;-90
2021/12/02 01:41:45;;;;;;;47.72;28.75;;;;;;;5.24;100.00;99213.25;5000887;28;20038;-90
2021/12/02 01:44:13;;;;;;;50.60;29.13;;;;;;;5.31;100.00;99224.78;4981487;28;20093;-89
2021/12/02 01:46:43;;;;;;;46.47;28.80;;;;;;;5.45;100.00;99224.16;5000922;28;20042;-90
2021/12/02 01:49:11;;;;;;;46.38;27.55;;;;;;;5.28;100.00;99214.59;5002589;28;20094;-90
2021/12/02 01:51:43;;;;;;;46.53;28.23;;;;;;;5.21;100.00;99205.69;4983636;28;20129;-88
2021/12/02 01:54:12;;;;;;;34.75;20.25;;;;;;;5.28;100.00;99208.50;4999047;28;20532;-89
2021/12/02 01:56:45;;;;;;;49.70;27.48;;;;;;;5.36;100.00;99212.00;4981852;28;20026;-90
2021/12/02 01:59:22;;;;;;;52.28;28.67;;;;;;;5.41;100.00;99207.06;4981968;28;20042;-90
2021/12/02 02:01:51;;;;;;;47.28;27.80;;;;;;;5.38;100.00;99219.69;4981481;28;20069;-90
2021/12/02 02:04:19;;;;;;;48.65;26.77;;;;;;;5.22;100.00;99213.44;4979924;28;20031;-88
2021/12/02 02:06:57;;;;;;;47.30;28.38;;;;;;;5.20;100.00;99210.13;4980103;28;20081;-89
2021/12/02 02:09:29;;;;;;;50.47;28.50;;;;;;;5.13;100.00;99205.69;4979181;28;20095;-88
2021/12/02 02:11:56;;;;;;;48.63;29.55;;;;;;;5.12;100.00;99193.53;4979837;28;20395;-88
2021/12/02 02:14:25;;;;;;;51.15;29.70;;;;;;;5.17;100.00;99204.41;4968039;28;20505;-89
2021/12/02 02:16:51;;;;;;;49.25;28.45;;;;;;;5.20;100.00;99211.94;4979806;28;20098;-88
2021/12/02 02:19:17;;;;;;;51.63;28.92;;;;;;;5.17;100.00;99207.81;4996379;28;20037;-88
2021/12/02 02:21:43;;;;;;;55.75;30.65;;;;;;;5.15;100.00;99203.72;5001218;28;20110;-89
2021/12/02 02:24:14;;;;;;;50.65;29.75;;;;;;;5.25;100.00;99198.31;5018218;28;20057;-88
2021/12/02 02:26:41;;;;;;;47.60;28.55;;;;;;;5.18;100.00;99196.34;5001282;28;20041;-88
2021/12/02 02:29:10;;;;;;;49.25;28.23;;;;;;;5.13;100.00;99185.50;4984448;28;20046;-87
2021/12/02 02:31:38;;;;;;;48.08;29.67;;;;;;;5.14;100.00;99191.56;5003465;28;20058;-88
2021/12/02 02:34:04;;;;;;;51.15;30.45;;;;;;;5.09;100.00;99172.84;4964759;28;20096;-89
2021/12/02 02:36:33;;;;;;;52.47;31.48;;;;;;;5.27;100.00;99186.66;5002875;28;20034;-89
2021/12/02 02:39:02;;;;;;;48.75;29.88;;;;;;;5.23;100.00;99180.13;4972142;28;20075;-89
2021/12/02 02:41:41;;;;;;;53.40;29.60;;;;;;;5.37;100.00;99181.28;4989689;28;20453;-89
2021/12/02 02:44:08;;;;;;;54.00;30.08;;;;;;;5.25;100.00;99175.50;5005319;28;20037;-90
2021/12/02 02:46:39;;;;;;;51.60;28.85;;;;;;;5.36;100.00;99177.00;4984115;28;20084;-89
2021/12/02 02:49:07;;;;;;;52.70;29.35;;;;;;;5.44;100.00;99174.38;4998818;28;20531;-87
2021/12/02 02:51:36;;;;;;;49.60;28.85;;;;;;;5.48;100.00;99168.66;4986923;28;20049;-89
2021/12/02 02:54:06;;;;;;;46.58;27.98;;;;;;;5.59;100.00;99163.09;4974035;28;20365;-90
2021/12/02 02:57:00;;;;;;;46.72;27.52;;;;;;;5.54;100.00;99168.00;5012767;28;20022;-91
2021/12/02 03:02:23;;;;;;;45.60;29.05;;;;;;;5.42;100.00;99142.22;5011946;28;20062;-91
2021/12/02 03:07:57;;;;;;;56.85;30.92;;;;;;;5.22;100.00;99162.69;4986428;28;20050;-91
2021/12/02 03:17:46;;;;;;;49.10;30.17;;;;;;;5.37;100.00;99150.56;4986697;28;20057;-90
2021/12/02 03:20:13;;;;;;;53.45;30.63;;;;;;;5.34;100.00;99143.00;4990826;28;20038;-90
2021/12/02 03:22:44;;;;;;;53.28;29.90;;;;;;;5.41;100.00;99141.38;4991614;28;20083;-89
2021/12/02 03:25:10;;;;;;;50.10;30.65;;;;;;;5.42;100.00;99137.78;5004173;28;20061;-91
2021/12/02 03:27:36;;;;;;;50.85;30.85;;;;;;;5.46;100.00;99139.09;4985886;28;20102;-90
2021/12/02 03:30:09;;;;;;;50.00;30.05;;;;;;;5.37;100.00;99124.28;4975682;28;20066;-90
2021/12/02 03:32:37;;;;;;;48.95;30.25;;;;;;;5.24;100.00;99118.69;5011403;28;20034;-92
2021/12/02 03:35:06;;;;;;;52.92;32.20;;;;;;;5.19;100.00;99124.47;4993859;28;20034;-91
2021/12/02 03:37:34;;;;;;;53.05;31.95;;;;;;;5.36;100.00;99127.94;5010669;28;20114;-90
2021/12/02 03:40:01;;;;;;;50.08;30.45;;;;;;;5.32;100.00;99121.34;4984463;28;20099;-90
2021/12/02 03:42:27;;;;;;;54.35;31.13;;;;;;;5.16;100.00;99121.34;5001421;28;20038;-87
2021/12/02 03:44:52;;;;;;;50.90;31.50;;;;;;;5.16;100.00;99122.16;4986596;28;20052;-91
2021/12/02 03:47:18;;;;;;;58.10;31.73;;;;;;;5.16;100.00;99116.09;4985326;28;20034;-91
2021/12/02 03:49:47;;;;;;;50.33;31.42;;;;;;;5.25;100.00;99115.09;5001664;28;20040;-90
2021/12/02 03:52:12;;;;;;;53.92;31.48;;;;;;;5.22;100.00;99107.53;4979089;28;20096;-88
2021/12/02 03:54:38;;;;;;;55.30;31.45;;;;;;;5.25;100.00;99109.84;5015235;28;20034;-90
2021/12/02 03:57:04;;;;;;;48.20;30.00;;;;;;;5.26;100.00;99106.25;4978706;28;20424;-88
2021/12/02 03:59:31;;;;;;;52.28;30.38;;;;;;;5.19;100.00;99115.75;4963634;28;20137;-88
2021/12/02 04:01:57;;;;;;;55.22;31.35;;;;;;;5.36;100.00;99114.78;4996024;28;20034;-89
2021/12/02 04:04:22;;;;;;;54.65;32.47;;;;;;;5.24;100.00;99118.69;4979701;28;20038;-90
2021/12/02 04:06:48;;;;;;;50.20;30.75;;;;;;;5.22;100.00;99115.44;4981477;28;20037;-90
2021/12/02 04:09:19;;;;;;;53.22;31.60;;;;;;;5.20;100.00;99109.53;4983313;28;20061;-89
2021/12/02 04:11:54;;;;;;;53.63;32.67;;;;;;;5.22;100.00;99094.41;4995096;28;20069;-89
2021/12/02 04:14:44;;;;;;;56.25;34.03;;;;;;;5.12;100.00;99099.81;4979466;28;20045;-90
2021/12/02 04:17:13;;;;;;;52.88;31.13;;;;;;;5.08;100.00;99093.25;4980335;28;20042;-88
2021/12/02 04:19:39;;;;;;;52.15;32.50;;;;;;;5.14;100.00;99095.22;5016129;28;20088;-88
2021/12/02 04:22:08;;;;;;;55.53;32.03;;;;;;;5.12;100.00;99099.00;4968811;28;20098;-89
2021/12/02 04:24:33;;;;;;;55.47;31.58;;;;;;;5.24;100.00;99102.94;5001126;28;20485;-90
2021/12/02 04:26:59;;;;;;;54.70;33.35;;;;;;;5.19;100.00;99100.81;4989556;28;20068;-90
2021/12/02 04:29:25;;;;;;;51.65;31.90;;;;;;;5.30;100.00;99097.06;5009566;28;20034;-91
2021/12/02 04:31:54;;;;;;;50.28;30.08;;;;;;;5.39;100.00;99085.56;4976822;28;20041;-87
2021/12/02 04:34:20;;;;;;;55.20;31.98;;;;;;;5.39;100.00;99101.31;5008532;28;20037;-90
2021/12/02 04:36:45;;;;;;;47.70;29.80;;;;;;;5.51;100.00;99091.28;4990356;28;20119;-89
2021/12/02 04:39:11;;;;;;;46.88;29.17;;;;;;;5.44;100.00;99092.94;4994442;28;20039;-90
2021/12/02 04:45:32;;;;;;;55.50;30.52;;;;;;;5.43;100.00;99086.88;5015700;28;20074;-88
2021/12/02 04:47:58;;;;;;;52.08;30.58;;;;;;;5.51;100.00;99089.50;5020488;28;20068;-88
2021/12/02 04:50:24;;;;;;;52.55;30.80;;;;;;;5.50;100.00;99085.22;5002306;28;20038;-88
2021/12/02 04:52:50;;;;;;;50.38;29.95;;;;;;;5.46;100.00;99086.56;4985498;28;20026;-89
2021/12/02 04:55:16;;;;;;;49.25;29.50;;;;;;;5.51;100.00;99094.75;5015487;28;20085;-87
2021/12/02 04:57:46;;;;;;;49.78;28.75;;;;;;;5.59;100.00;99092.13;4999982;28;20030;-88
2021/12/02 05:00:12;;;;;;;46.97;28.42;;;;;;;5.55;100.00;99096.06;4997293;28;20034;-89
2021/12/02 05:02:40;;;;;;;50.53;30.13;;;;;;;5.47;100.00;99093.44;5012752;28;20062;-86
2021/12/02 05:05:06;;;;;;;49.63;29.60;;;;;;;5.50;100.00;99085.22;5013154;28;20026;-88
2021/12/02 05:07:39;;;;;;;45.38;28.75;;;;;;;5.57;100.00;99093.25;4995825;28;20058;-88
2021/12/02 05:10:06;;;;;;;51.38;29.77;;;;;;;5.51;100.00;99078.97;4987269;28;20418;-88
2021/12/02 05:12:32;;;;;;;51.70;30.88;;;;;;;5.30;100.00;99076.06;5001343;28;20034;-89
2021/12/02 05:14:59;;;;;;;54.05;30.63;;;;;;;5.22;100.00;99079.47;5002782;28;20030;-88
2021/12/02 05:17:25;;;;;;;53.80;30.40;;;;;;;5.25;100.00;99061.75;4984948;28;20038;-89
2021/12/02 05:19:51;;;;;;;53.10;31.85;;;;;;;5.14;100.00;99073.38;4989778;28;20423;-88
2021/12/02 05:22:17;;;;;;;57.10;33.67;;;;;;;5.08;100.00;99076.66;5018181;28;20030;-88
2021/12/02 05:24:44;;;;;;;52.97;29.75;;;;;;;4.99;100.00;99067.16;5004446;28;20038;-86
2021/12/02 05:27:16;;;;;;;56.45;33.10;;;;;;;5.00;100.00;99072.25;5001540;28;20109;-87
2021/12/02 05:29:42;;;;;;;59.30;32.97;;;;;;;4.94;100.00;99078.13;4999844;28;20078;-90
2021/12/02 05:32:08;;;;;;;56.42;32.88;;;;;;;4.90;100.00;99068.13;5004170;28;20084;-84
2021/12/02 05:34:34;;;;;;;53.33;31.58;;;;;;;4.88;100.00;99075.31;5009724;28;20026;-91
2021/12/02 05:37:00;;;;;;;55.20;31.17;;;;;;;4.92;100.00;99063.53;5000915;28;20041;-84
2021/12/02 05:39:25;;;;;;;60.42;33.00;;;;;;;4.93;100.00;99058.13;4997140;28;20073;-88
2021/12/02 05:41:53;;;;;;;61.72;33.78;;;;;;;4.96;100.00;99056.97;5001076;28;20031;-90
2021/12/02 05:44:29;;;;;;;50.67;30.70;;;;;;;4.92;100.00;99051.22;5012527;28;20022;-87
2021/12/02 05:46:57;;;;;;;56.88;33.28;;;;;;;4.94;100.00;99046.63;4973392;28;20045;-88
2021/12/02 05:49:29;;;;;;;56.92;33.78;;;;;;;4.93;100.00;99047.63;4986719;28;20034;-87
2021/12/02 05:51:55;;;;;;;51.65;32.33;;;;;;;4.96;100.00;99041.22;5003490;28;20085;-88
2021/12/02 05:54:22;;;;;;;53.95;31.08;;;;;;;5.14;100.00;99040.06;4991134;28;20253;-91
2021/12/02 05:56:47;;;;;;;51.53;31.05;;;;;;;5.01;100.00;99039.75;5005721;28;20508;-87
2021/12/02 05:59:13;;;;;;;54.20;32.45;;;;;;;5.03;100.00;99036.97;4998158;28;20042;-87
2021/12/02 06:01:42;;;;;;;54.58;33.17;;;;;;;4.95;100.00;99047.44;4998351;28;20049;-88
2021/12/02 06:04:09;;;;;;;57.25;34.33;;;;;;;4.89;100.00;99045.47;5012177;28;20044;-90
2021/12/02 06:06:35;;;;;;;57.97;34.25;;;;;;;4.90;100.00;99047.13;5019465;28;20030;-87
2021/12/02 06:09:01;;;;;;;53.72;33.25;;;;;;;4.92;100.00;99043.34;5001907;28;20140;-89
2021/12/02 06:11:27;;;;;;;56.72;31.83;;;;;;;4.96;100.00;99042.03;5018338;28;20112;-89
2021/12/02 06:13:52;;;;;;;54.75;33.30;;;;;;;4.99;100.00;99040.91;5018749;28;20038;-87
2021/12/02 06:16:20;;;;;;;56.70;32.75;;;;;;;4.96;100.00;99031.53;5019772;28;20018;-88
2021/12/02 06:18:46;;;;;;;57.63;33.70;;;;;;;4.99;100.00;99043.53;5017953;28;20549;-89
2021/12/02 06:21:11;;;;;;;56.78;33.78;;;;;;;5.07;100.00;99043.53;5003021;28;20077;-88
2021/12/02 06:23:40;;;;;;;53.95;30.65;;;;;;;5.10;100.00;99038.75;5021662;28;20382;-89
2021/12/02 06:26:26;;;;;;;57.40;31.48;;;;;;;5.11;100.00;99037.78;5002403;28;20037;-89
2021/12/02 06:28:52;;;;;;;49.28;30.33;;;;;;;5.13;100.00;99040.25;5016948;28;20061;-89
2021/12/02 06:31:17;;;;;;;52.45;30.75;;;;;;;5.16;100.00;99039.94;5020450;28;20072;-89
2021/12/02 06:33:43;;;;;;;57.92;29.90;;;;;;;5.18;100.00;99045.81;5019118;28;20081;-86
2021/12/02 06:36:08;;;;;;;52.85;29.95;;;;;;;5.33;100.00;99053.88;5023915;28;20045;-87
2021/12/02 06:38:34;;;;;;;51.03;31.13;;;;;;;5.33;100.00;99053.88;5025082;28;20066;-88
2021/12/02 06:41:00;;;;;;;53.65;31.65;;;;;;;5.20;100.00;99046.50;5008256;28;20038;-92
2021/12/02 06:43:25;;;;;;;52.40;30.38;;;;;;;5.18;100.00;99053.69;5024592;28;20038;-86
2021/12/02 06:45:51;;;;;;;50.88;29.10;;;;;;;5.37;100.00;99049.94;5024226;28;20105;-87
2021/12/02 06:48:18;;;;;;;50.47;29.92;;;;;;;5.39;100.00;99054.03;5008207;28;20116;-88
2021/12/02 06:50:44;;;;;;;53.85;29.98;;;;;;;5.27;100.00;99060.59;5010681;28;20034;-89
2021/12/02 06:53:16;;;;;;;50.25;27.92;;;;;;;5.40;100.00;99063.53;5000413;28;20030;-87
2021/12/02 06:55:41;;;;;;;47.10;28.15;;;;;;;5.44;100.00;99051.72;5012679;28;20060;-88
2021/12/02 06:58:07;;;;;;;46.20;27.35;;;;;;;5.41;100.00;99049.44;4972666;28;20481;-86
2021/12/02 07:00:33;;;;;;;48.33;27.63;;;;;;;5.40;100.00;99049.63;4961209;28;20038;-88
2021/12/02 07:03:00;;;;;;;45.70;27.33;;;;;;;5.61;100.00;99053.34;4995978;28;20070;-85
2021/12/02 07:05:27;;;;;;;48.08;28.08;;;;;;;5.45;100.00;99057.81;4999161;28;20041;-88
2021/12/02 07:07:53;;;;;;;44.83;27.45;;;;;;;5.44;100.00;99062.22;5001496;28;20431;-88
2021/12/02 07:10:23;;;;;;;45.97;27.45;;;;;;;5.48;100.00;99057.47;4995387;28;20061;-88
2021/12/02 07:12:52;;;;;;;53.40;27.02;;;;;;;5.51;100.00;99052.72;4971446;28;20049;-87
2021/12/02 07:15:31;;;;;;;47.47;26.88;;;;;;;5.45;100.00;99052.53;4996890;28;20397;-85
2021/12/02 07:17:58;;;;;;;46.42;27.70;;;;;;;5.49;100.00;99052.06;4996348;28;20126;-89
2021/12/02 07:20:25;;;;;;;44.20;26.17;;;;;;;5.63;100.00;99056.63;4995977;28;20072;-87
2021/12/02 07:22:51;;;;;;;44.72;26.70;;;;;;;5.68;100.00;99059.59;4995470;28;20037;-87
2021/12/02 07:25:17;;;;;;;42.47;26.60;;;;;;;5.61;100.00;99063.03;4996136;28;20026;-87
2021/12/02 07:27:43;;;;;;;44.25;27.25;;;;;;;5.56;100.00;99071.44;5072176;23;20459;-88
2021/12/02 07:30:09;;;;;;;51.33;27.65;;;;;;;5.44;100.00;99056.97;5019577;28;20041;-88
2021/12/02 07:32:40;;;;;;;45.15;26.85;;;;;;;5.44;100.00;99051.72;5019335;28;20362;-87
2021/12/02 07:35:16;;;;;;;48.35;28.25;;;;;;;5.43;100.00;99055.34;5022935;28;20037;-88
2021/12/02 07:37:48;;;;;;;48.13;27.75;;;;;;;5.42;100.00;99045.81;5018827;28;20037;-88
2021/12/02 07:40:34;;;;;;;48.25;28.10;;;;;;;5.42;100.00;99050.25;5039108;28;20093;-89
2021/12/02 07:43:29;;;;;;;46.85;26.20;;;;;;;5.40;100.00;99045.16;5018127;28;20052;-91
2021/12/02 07:45:57;;;;;;;47.15;27.63;;;;;;;5.45;100.00;99042.88;5016939;28;20099;-86
2021/12/02 07:48:24;;;;;;;47.45;28.35;;;;;;;5.61;100.00;99042.03;5016354;28;20033;-89
2021/12/02 07:51:06;;;;;;;51.60;27.92;;;;;;;5.47;100.00;99051.38;5028972;28;20093;-89
2021/12/02 07:53:31;;;;;;;44.40;26.95;;;;;;;5.52;100.00;99054.34;5030923;28;20030;-89
2021/12/02 07:56:03;;;;;;;47.85;26.52;;;;;;;5.78;100.00;99048.88;5031217;28;20072;-88
2021/12/02 07:58:31;;;;;;;45.63;26.98;;;;;;;5.70;100.00;99052.34;5028449;28;20038;-87
2021/12/02 08:01:02;;;;;;;47.05;27.02;;;;;;;5.63;100.00;99051.38;5032786;28;20473;-88
2021/12/02 08:03:29;;;;;;;44.92;26.75;;;;;;;5.64;100.00;99050.38;5027335;28;20045;-88
2021/12/02 08:05:57;;;;;;;49.05;27.75;;;;;;;5.68;100.00;99054.34;5027911;28;20046;-88
2021/12/02 08:08:27;;;;;;;44.53;25.75;;;;;;;5.70;100.00;99052.34;5033980;28;20033;-88
2021/12/02 08:10:56;;;;;;;56.10;26.27;;;;;;;5.63;100.00;99048.75;5028222;28;20034;-86
2021/12/02 08:13:40;;;;;;;57.80;27.33;;;;;;;5.65;100.00;99044.16;5029147;28;20104;-88
2021/12/02 08:16:07;;;;;;;57.97;27.52;;;;;;;5.74;100.00;99048.41;5026752;28;20042;-90
2021/12/02 08:18:35;;;;;;;57.00;27.85;;;;;;;5.79;100.00;99044.47;5028130;28;20045;-86
2021/12/02 08:21:01;;;;;;;61.22;29.25;;;;;;;5.74;100.00;99043.16;4990620;28;20029;-88
2021/12/02 08:23:28;;;;;;;60.05;27.70;;;;;;;5.79;100.00;99039.19;5025570;28;20038;-88
2021/12/02 08:25:55;;;;;;;51.17;25.95;;;;;;;5.88;100.00;99039.03;5004568;28;20041;-87
2021/12/02 08:29:09;;;;;;;51.97;26.40;;;;;;;5.85;100.00;99047.25;5014116;28;20105;-90
2021/12/02 08:31:55;;;;;;;52.65;26.10;;;;;;;5.90;100.00;99031.00;5030506;28;20042;-91
2021/12/02 08:34:21;;;;;;;54.92;26.65;;;;;;;5.84;100.00;99029.81;4972399;28;20038;-89
2021/12/02 08:36:55;;;;;;;42.20;25.60;;;;;;;5.85;100.00;99046.41;5006071;28;20545;-89
2021/12/02 08:39:31;;;;;;;42.25;24.48;;;;;;;5.80;100.00;99051.38;5004686;28;20042;-88
2021/12/02 08:41:58;;;;;;;50.08;27.30;;;;;;;5.89;100.00;99043.31;4972426;28;20035;-89
2021/12/02 08:44:25;;;;;;;53.45;28.80;;;;;;;6.08;100.00;99034.22;5003889;28;20391;-90
2021/12/02 08:46:53;;;;;;;45.67;26.08;;;;;;;6.00;100.00;99036.88;5003529;28;20045;-91
2021/12/02 08:49:23;;;;;;;49.97;26.75;;;;;;;5.88;100.00;99043.47;4973176;28;20397;-89
2021/12/02 08:51:51;;;;;;;54.75;27.17;;;;;;;5.85;100.00;99044.59;4996428;28;20053;-90
2021/12/02 08:54:18;;;;;;;55.40;27.67;;;;;;;5.80;100.00;99046.09;4979425;28;20034;-90
2021/12/02 08:56:44;;;;;;;55.97;27.98;;;;;;;5.85;100.00;99049.03;4992647;28;20105;-89
2021/12/02 08:59:10;;;;;;;55.22;28.02;;;;;;;5.93;100.00;99049.06;4990807;28;20038;-88
2021/12/02 09:01:36;;;;;;;55.95;28.33;;;;;;;6.03;100.00;99052.31;4990974;28;20113;-87
2021/12/02 09:04:04;;;;;;;43.70;26.77;;;;;;;6.02;100.00;99046.25;5008631;28;20579;-89
2021/12/02 09:06:34;;;;;;;52.60;28.23;;;;;;;5.97;100.00;99039.81;5009287;28;20038;-87
2021/12/02 09:09:00;;;;;;;45.58;26.10;;;;;;;6.00;100.00;99040.31;4992499;28;20036;-89
2021/12/02 09:11:28;;;;;;;58.85;27.65;;;;;;;6.00;100.00;99036.88;4997342;28;20042;-90
2021/12/02 09:13:58;;;;;;;54.15;27.33;;;;;;;6.16;100.00;99042.09;5006986;28;20043;-90
2021/12/02 09:16:25;;;;;;;51.05;26.48;;;;;;;6.21;100.00;99045.03;5017369;28;20038;-90
2021/12/02 09:18:51;;;;;;;66.13;28.13;;;;;;;6.26;100.00;99053.22;5009854;28;20042;-90
2021/12/02 09:21:17;;;;;;;59.33;27.63;;;;;;;6.35;100.00;99048.75;5009421;28;20118;-90
2021/12/02 09:23:43;;;;;;;69.88;26.02;;;;;;;6.26;100.00;99049.78;5008353;28;20038;-90
2021/12/02 09:26:12;;;;;;;48.10;26.75;;;;;;;6.28;100.00;99055.69;5016668;28;20057;-88
2021/12/02 09:28:43;;;;;;;54.33;26.33;;;;;;;6.22;100.00;99047.50;4999097;28;20104;-88
2021/12/02 09:31:09;;;;;;;52.67;26.85;;;;;;;6.24;100.00;99036.78;4997653;28;20110;-86
2021/12/02 09:33:35;;;;;;;52.35;28.27;;;;;;;6.21;100.00;99045.03;4981413;28;20120;-88
2021/12/02 09:36:01;;;;;;;57.15;27.27;;;;;;;6.33;100.00;99034.94;5015784;28;20507;-87
2021/12/02 09:38:27;;;;;;;51.60;26.08;;;;;;;6.42;100.00;99042.63;5017653;28;20533;-86
2021/12/02 09:40:55;;;;;;;52.63;25.50;;;;;;;6.41;100.00;99040.97;4982951;28;20046;-88
2021/12/02 09:43:21;;;;;;;48.47;26.15;;;;;;;6.37;100.00;99034.41;5019428;28;20033;-88
2021/12/02 09:45:46;;;;;;;49.28;27.27;;;;;;;6.54;100.00;99029.91;5000272;28;20378;-87
2021/12/02 09:48:12;;;;;;;53.38;29.63;;;;;;;6.59;100.00;99024.94;5017738;28;20073;-87
2021/12/02 09:53:32;;;;;;;56.83;28.40;;;;;;;6.99;100.00;99014.16;5009127;28;20030;-86
2021/12/02 09:56:11;;;;;;;50.72;26.73;;;;;;;6.86;100.00;99006.00;5012262;28;20038;-86
2021/12/02 09:58:39;;;;;;;50.65;26.95;;;;;;;6.71;100.00;99003.31;5000948;28;20063;-85
2021/12/02 10:01:10;;;;;;;51.38;28.73;;;;;;;6.85;100.00;98998.28;4991168;28;20041;-84
2021/12/02 10:03:46;;;;;;;48.40;27.00;;;;;;;6.82;100.00;98996.00;4986225;28;20687;-87
2021/12/02 10:06:17;;;;;;;49.40;26.98;;;;;;;6.66;100.00;98995.09;4979176;28;20038;-89
2021/12/02 10:11:55;;;;;;;49.97;25.75;;;;;;;6.76;100.00;98998.34;4966310;28;20381;-87
2021/12/02 10:14:24;;;;;;;59.03;27.13;;;;;;;6.87;100.00;98998.91;4978709;28;20552;-86
2021/12/02 10:17:04;;;;;;;53.42;28.60;;;;;;;6.64;100.00;98988.38;4996372;28;20113;-86
2021/12/02 10:19:30;;;;;;;52.03;28.52;;;;;;;6.58;100.00;98975.94;4995197;28;20065;-87
2021/12/02 10:22:03;;;;;;;46.42;28.48;;;;;;;6.59;100.00;98975.75;4994998;28;20126;-85
2021/12/02 10:24:30;;;;;;;55.97;28.25;;;;;;;6.51;100.00;98962.66;4977892;28;20042;-86
2021/12/02 10:27:10;;;;;;;52.88;29.25;;;;;;;6.49;100.00;98958.56;4979852;28;20082;-86
2021/12/02 10:30:18;;;;;;;47.33;28.02;;;;;;;6.40;100.00;98957.75;4989565;28;20066;-86
2021/12/02 10:33:04;;;;;;;46.40;28.45;;;;;;;6.48;100.00;98951.66;4986052;28;20551;-87
2021/12/02 10:35:39;;;;;;;51.33;28.90;;;;;;;6.54;100.00;98943.88;4981681;28;20049;-86
2021/12/02 10:38:05;;;;;;;52.97;28.90;;;;;;;6.62;100.00;98945.63;5001990;28;20031;-85
2021/12/02 10:40:30;;;;;;;67.00;30.02;;;;;;;6.65;100.00;98932.94;5003517;28;20030;-88
2021/12/02 10:43:06;;;;;;;68.03;30.15;;;;;;;6.72;100.00;98936.50;4995465;28;20572;-87
2021/12/02 10:46:22;;;;;;;56.17;30.65;;;;;;;6.65;100.00;98932.94;4965760;28;20047;-84
2021/12/02 10:48:54;;;;;;;46.30;21.98;;;;;;;6.76;100.00;98926.44;4958629;28;20055;-87
2021/12/02 10:51:50;;;;;;;49.45;29.20;;;;;;;6.72;100.00;98928.63;4963474;28;20107;-89
2021/12/02 10:54:32;;;;;;;65.65;33.60;;;;;;;6.75;100.00;98907.19;4960398;29;20091;-91
2021/12/02 10:57:00;;;;;;;53.83;30.52;;;;;;;6.77;100.00;98904.38;4967407;28;20137;-93
2021/12/02 10:59:42;;;;;;;53.70;30.27;;;;;;;6.70;100.00;98903.44;4963324;28;20051;-89
2021/12/02 11:02:19;;;;;;;60.67;31.33;;;;;;;6.64;100.00;98899.72;4994895;28;20054;-92
2021/12/02 11:04:59;;;;;;;57.65;29.92;;;;;;;6.76;100.00;98895.66;4973587;28;20490;-90
2021/12/02 11:07:33;;;;;;;53.25;30.48;;;;;;;6.75;100.00;98901.94;4974042;28;20046;-90
2021/12/02 11:10:14;;;;;;;47.60;28.60;;;;;;;6.67;100.00;98899.34;4992874;28;20057;-89
2021/12/02 11:12:49;;;;;;;54.58;30.73;;;;;;;6.60;100.00;98893.16;4984682;28;20049;-88
2021/12/02 11:15:18;;;;;;;90.22;31.73;;;;;;;6.77;100.00;98893.84;4970755;28;20057;-90
2021/12/02 11:17:54;;;;;;;62.38;31.60;;;;;;;6.66;100.00;98887.19;4989064;28;20038;-88
2021/12/02 11:20:26;;;;;;;63.85;31.67;;;;;;;6.71;100.00;98884.84;4967906;28;20031;-91
2021/12/02 11:23:14;;;;;;;65.20;33.97;;;;;;;6.74;100.00;98881.84;4974371;28;20031;-93
2021/12/02 11:26:08;;;;;;;82.15;36.50;;;;;;;6.69;100.00;98880.75;4989811;28;20074;-92
2021/12/02 11:28:55;;;;;;;63.03;34.92;;;;;;;6.78;100.00;98889.41;5023112;28;20046;-88
2021/12/02 11:31:22;;;;;;;57.58;32.67;;;;;;;6.73;100.00;98871.50;5034754;28;20065;-89
2021/12/02 11:34:11;;;;;;;59.45;36.00;;;;;;;6.70;100.00;98872.66;5004412;28;20042;-90
2021/12/02 11:36:37;;;;;;;60.95;34.80;;;;;;;6.63;100.00;98866.47;5041587;28;20033;-90
2021/12/02 11:39:09;;;;;;;66.10;36.03;;;;;;;6.76;100.00;98864.06;5027104;28;20048;-89
2021/12/02 11:41:34;;;;;;;63.22;35.63;;;;;;;6.72;100.00;98854.91;5006300;28;20082;-92
2021/12/02 11:44:04;;;;;;;83.22;38.15;;;;;;;6.72;100.00;98862.81;5034188;28;20026;-91
2021/12/02 11:46:37;;;;;;;70.35;35.20;;;;;;;6.85;100.00;98853.47;4970065;28;20100;-93
2021/12/02 11:49:08;;;;;;;73.22;36.05;;;;;;;6.88;100.00;98850.47;4998006;28;20034;-92
2021/12/02 11:51:37;;;;;;;69.97;34.60;;;;;;;7.01;100.00;98848.03;4984848;28;20062;-90
2021/12/02 11:54:10;;;;;;;59.88;34.22;;;;;;;7.04;100.00;98839.78;4986021;28;20073;-92
2021/12/02 11:56:38;;;;;;;77.53;36.87;;;;;;;6.91;100.00;98829.03;5027663;28;20038;-92